Time;durP1;ratioP1;P1;durP2;ratioP2;P2;SDS_P1;SDS_P2;PMS_P1;PMS_P2;Temp;Humidity;BMP_temperature;BMP_pressure;BME280_temperature;BME280_humidity;BME280_pressure;Samples;Min_cycle;Max_cycle;Signal;HPM_P1;HPM_P2
2022/01/31 00:02:06;;;;;;;22.02;5.28;;;;;;;1.27;69.23;96632.37;1754641;81;25786;-82
2022/01/31 00:04:32;;;;;;;27.52;4.92;;;;;;;1.28;69.18;96633.20;1754548;81;26309;-85
2022/01/31 00:06:59;;;;;;;30.88;5.42;;;;;;;1.27;69.13;96645.67;1754360;81;25711;-86
2022/01/31 00:09:26;;;;;;;27.62;5.53;;;;;;;1.28;69.10;96636.70;1754742;81;28023;-87
2022/01/31 00:12:00;;;;;;;27.27;6.10;;;;;;;1.26;68.92;96642.69;1754389;81;25796;-82
2022/01/31 00:14:41;;;;;;;16.93;4.93;;;;;;;1.27;68.99;96647.50;1754358;81;25764;-83
2022/01/31 00:17:06;;;;;;;20.27;5.10;;;;;;;1.28;69.02;96646.50;1753945;81;25857;-82
2022/01/31 00:19:34;;;;;;;33.08;6.75;;;;;;;1.24;69.11;96657.14;1754833;81;25749;-82
2022/01/31 00:22:01;;;;;;;29.90;6.28;;;;;;;1.16;69.35;96650.03;1757750;81;27467;-82
2022/01/31 00:24:27;;;;;;;25.15;5.28;;;;;;;1.06;69.69;96655.55;1757608;81;25741;-82
2022/01/31 00:26:54;;;;;;;20.72;5.33;;;;;;;1.00;69.74;96652.23;1754806;81;25753;-82
2022/01/31 00:29:20;;;;;;;33.78;6.53;;;;;;;0.94;70.00;96652.09;1754722;81;25756;-81
2022/01/31 00:31:47;;;;;;;24.80;5.92;;;;;;;0.92;69.97;96644.78;1754822;81;25687;-82
2022/01/31 00:34:13;;;;;;;26.48;5.55;;;;;;;0.93;70.03;96639.30;1754724;81;27884;-81
2022/01/31 00:36:40;;;;;;;31.42;6.50;;;;;;;0.96;70.11;96646.11;1754561;81;26173;-81
2022/01/31 00:39:07;;;;;;;26.33;6.50;;;;;;;0.96;70.08;96634.16;1754692;81;26321;-81
2022/01/31 00:41:34;;;;;;;27.00;6.17;;;;;;;0.93;70.03;96645.95;1754746;81;25792;-84
2022/01/31 00:44:12;;;;;;;22.50;5.33;;;;;;;0.93;70.01;96645.12;1754767;81;25789;-82
2022/01/31 00:46:38;;;;;;;25.50;6.75;;;;;;;0.92;69.88;96648.27;1752405;81;27294;-85
2022/01/31 00:48:58;;;;;;;25.92;5.45;;;;;;;0.93;69.87;96648.61;1722831;83;25776;-84
2022/01/31 00:51:24;;;;;;;23.73;5.42;;;;;;;0.95;69.80;96636.48;1754524;81;25777;-86
2022/01/31 00:53:51;;;;;;;32.00;6.33;;;;;;;0.97;69.64;96637.95;1754517;81;25709;-81
2022/01/31 00:56:17;;;;;;;25.30;5.05;;;;;;;0.98;69.54;96624.16;1754762;81;25777;-85
2022/01/31 00:58:44;;;;;;;28.05;5.22;;;;;;;0.99;69.48;96645.25;1754863;81;27547;-83
2022/01/31 01:01:10;;;;;;;21.48;5.20;;;;;;;1.00;69.37;96621.66;1754440;81;25863;-85
2022/01/31 01:03:37;;;;;;;20.23;5.25;;;;;;;0.98;69.12;96614.36;1754570;81;25768;-83
2022/01/31 01:06:04;;;;;;;25.17;5.08;;;;;;;0.98;68.94;96605.55;1754369;81;25690;-83
2022/01/31 01:08:30;;;;;;;19.55;4.72;;;;;;;0.98;68.81;96605.06;1754891;81;25746;-82
2022/01/31 01:10:57;;;;;;;21.15;4.40;;;;;;;0.99;68.67;96600.08;1754787;81;28120;-88
2022/01/31 01:13:24;;;;;;;28.42;5.05;;;;;;;0.99;68.66;96606.72;1754672;81;25705;-84
2022/01/31 01:15:50;;;;;;;23.20;4.70;;;;;;;0.98;68.55;96597.09;1721352;83;26300;-83
2022/01/31 01:18:17;;;;;;;25.43;4.95;;;;;;;0.96;68.46;96592.97;1724657;83;26145;-84
2022/01/31 01:20:44;;;;;;;22.13;4.15;;;;;;;0.95;68.36;96608.58;1754801;81;25765;-82
2022/01/31 01:23:10;;;;;;;26.70;4.25;;;;;;;0.93;68.16;96607.42;1754750;81;27345;-85
2022/01/31 01:25:37;;;;;;;26.93;5.05;;;;;;;0.93;68.12;96598.12;1754701;81;25665;-82
2022/01/31 01:28:04;;;;;;;23.57;5.25;;;;;;;0.93;68.03;96602.60;1724697;83;26240;-86
2022/01/31 01:30:30;;;;;;;30.70;5.37;;;;;;;0.89;68.02;96598.62;1754703;81;26328;-83
2022/01/31 01:35:30;;;;;;;24.52;4.85;;;;;;;0.87;67.99;96608.08;1754653;81;28273;-85
2022/01/31 01:37:55;;;;;;;23.42;4.70;;;;;;;0.90;67.94;96610.41;1721439;83;25841;-84
2022/01/31 01:40:22;;;;;;;31.52;5.37;;;;;;;0.92;67.83;96611.57;1724630;82;25720;-85
2022/01/31 01:42:49;;;;;;;20.55;4.42;;;;;;;0.95;67.72;96624.52;1754847;81;25732;-83
2022/01/31 01:45:15;;;;;;;25.55;4.78;;;;;;;0.96;67.57;96609.73;1754766;81;25749;-83
2022/01/31 01:47:42;;;;;;;29.52;5.40;;;;;;;0.94;67.30;96633.00;1754557;81;27543;-84
2022/01/31 01:50:09;;;;;;;21.70;4.15;;;;;;;0.94;67.20;96621.53;1756175;81;25712;-86
2022/01/31 01:52:36;;;;;;;25.17;5.70;;;;;;;0.92;67.08;96625.69;1760406;81;25697;-85
2022/01/31 01:55:03;;;;;;;32.00;5.25;;;;;;;0.92;66.76;96627.02;1760404;81;26597;-83
2022/01/31 01:57:29;;;;;;;18.77;3.90;;;;;;;0.93;66.67;96616.72;1730112;82;25721;-83
2022/01/31 01:59:57;;;;;;;21.15;4.47;;;;;;;0.94;66.56;96609.58;1760373;81;27481;-82
2022/01/31 02:02:24;;;;;;;16.05;4.22;;;;;;;0.95;66.42;96624.02;1759984;81;25728;-81
2022/01/31 02:04:51;;;;;;;20.50;4.37;;;;;;;0.97;66.36;96636.61;1760363;81;25744;-82
2022/01/31 02:07:19;;;;;;;16.75;3.00;;;;;;;0.99;66.13;96637.28;1760275;81;25361;-82
2022/01/31 02:09:53;;;;;;;18.52;3.87;;;;;;;0.99;66.02;96637.28;1760308;81;26041;-82
2022/01/31 02:12:15;;;;;;;15.43;3.42;;;;;;;1.00;65.97;96639.44;1759179;81;27407;-83
2022/01/31 02:14:41;;;;;;;17.42;3.42;;;;;;;1.01;65.85;96636.61;1760333;81;25740;-84
2022/01/31 02:17:08;;;;;;;22.17;4.65;;;;;;;1.04;65.80;96632.80;1760107;81;25743;-83
2022/01/31 02:19:34;;;;;;;20.75;3.27;;;;;;;1.02;65.47;96623.66;1760383;81;26286;-82
2022/01/31 02:22:01;;;;;;;18.35;4.00;;;;;;;1.05;65.49;96619.84;1760428;81;25712;-82
2022/01/31 02:24:30;;;;;;;18.15;4.10;;;;;;;1.05;65.38;96623.33;1760403;81;27305;-85
2022/01/31 02:26:57;;;;;;;18.20;3.90;;;;;;;1.05;65.01;96619.34;1760241;81;25957;-84
2022/01/31 02:29:24;;;;;;;19.02;3.65;;;;;;;1.07;64.97;96620.50;1760299;81;25761;-85
2022/01/31 02:31:50;;;;;;;22.60;4.25;;;;;;;1.05;64.81;96607.38;1760307;81;25736;-83
2022/01/31 02:34:17;;;;;;;19.57;4.05;;;;;;;1.06;64.71;96602.89;1760369;81;25796;-82
2022/01/31 02:36:44;;;;;;;18.48;3.70;;;;;;;1.03;64.62;96613.36;1760223;81;27437;-84
2022/01/31 02:39:11;;;;;;;15.40;3.55;;;;;;;1.03;64.57;96604.06;1756075;81;25760;-83
2022/01/31 02:41:43;;;;;;;19.17;4.08;;;;;;;1.04;64.65;96616.34;1752083;81;25741;-82
2022/01/31 02:44:15;;;;;;;13.45;3.33;;;;;;;1.03;64.39;96602.73;1751382;81;25886;-81
2022/01/31 02:46:52;;;;;;;20.10;2.93;;;;;;;0.99;64.11;96606.72;1752277;81;25665;-81
2022/01/31 02:49:24;;;;;;;18.92;3.80;;;;;;;0.96;63.93;96597.78;1751843;81;26844;-83
2022/01/31 02:52:00;;;;;;;20.20;3.40;;;;;;;0.95;63.83;96576.69;1751347;81;25796;-82
2022/01/31 02:54:27;;;;;;;19.42;3.20;;;;;;;0.95;63.86;96565.56;1751659;81;25768;-83
2022/01/31 02:56:54;;;;;;;14.20;3.77;;;;;;;0.94;63.70;96561.75;1751895;81;25728;-81
2022/01/31 02:59:20;;;;;;;15.18;3.45;;;;;;;0.93;63.67;96564.91;1751917;81;25722;-82
2022/01/31 03:01:47;;;;;;;19.70;4.17;;;;;;;0.93;63.55;96554.27;1751464;81;27416;-85
2022/01/31 03:04:14;;;;;;;16.97;2.85;;;;;;;1.01;63.84;96545.42;1751823;81;25716;-82
2022/01/31 03:06:49;;;;;;;20.97;3.47;;;;;;;1.06;63.58;96543.92;1751922;81;25790;-82
2022/01/31 03:09:09;;;;;;;15.15;3.25;;;;;;;1.06;63.24;96531.96;1750656;81;25782;-82
2022/01/31 03:11:36;;;;;;;20.80;4.10;;;;;;;0.99;62.93;96533.64;1752073;81;25735;-83
2022/01/31 03:14:03;;;;;;;12.63;3.10;;;;;;;0.94;62.80;96525.37;1751111;81;27426;-83
2022/01/31 03:16:29;;;;;;;20.35;3.45;;;;;;;0.91;62.66;96530.20;1751237;81;25840;-82
2022/01/31 03:18:56;;;;;;;8.53;2.25;;;;;;;0.86;62.57;96526.72;1751890;81;25690;-81
2022/01/31 03:21:22;;;;;;;14.68;2.67;;;;;;;0.84;62.50;96534.55;1749033;81;26563;-83
2022/01/31 03:23:50;;;;;;;14.20;3.08;;;;;;;0.84;62.42;96534.55;1760196;81;25654;-82
2022/01/31 03:26:18;;;;;;;14.83;3.70;;;;;;;0.84;62.35;96535.38;1760316;81;26912;-84
2022/01/31 03:28:45;;;;;;;14.95;2.85;;;;;;;0.84;62.02;96531.90;1760077;81;25713;-82
2022/01/31 03:31:13;;;;;;;19.77;3.10;;;;;;;0.80;62.02;96536.72;1760293;81;25744;-83
2022/01/31 03:33:40;;;;;;;19.92;3.30;;;;;;;0.76;62.13;96540.70;1729909;82;26139;-83
2022/01/31 03:36:06;;;;;;;15.95;3.05;;;;;;;0.77;62.04;96539.71;1728484;83;25724;-83
2022/01/31 03:38:37;;;;;;;15.23;3.15;;;;;;;0.80;62.13;96539.38;1760276;81;27372;-86
2022/01/31 03:41:02;;;;;;;22.32;3.95;;;;;;;0.80;62.14;96533.23;1742201;82;26348;-82
2022/01/31 03:43:28;;;;;;;16.20;3.00;;;;;;;0.82;62.11;96537.88;1760218;81;25767;-82
2022/01/31 03:45:55;;;;;;;15.90;3.02;;;;;;;0.83;62.12;96521.77;1760181;81;26132;-82
2022/01/31 03:48:24;;;;;;;15.60;3.05;;;;;;;0.81;61.92;96531.73;1760268;81;26551;-83
2022/01/31 03:50:50;;;;;;;15.32;2.80;;;;;;;0.82;61.84;96536.55;1760005;81;28454;-83
2022/01/31 03:53:16;;;;;;;17.57;3.08;;;;;;;0.82;61.73;96532.06;1760141;81;25688;-84
2022/01/31 03:55:43;;;;;;;12.25;2.98;;;;;;;0.79;61.56;96526.27;1759944;81;25799;-84
2022/01/31 03:58:10;;;;;;;14.28;2.98;;;;;;;0.78;61.66;96527.26;1760040;81;25740;-81
2022/01/31 04:00:36;;;;;;;14.63;2.87;;;;;;;0.75;61.49;96529.75;1760273;81;25737;-82
2022/01/31 04:03:04;;;;;;;13.22;3.22;;;;;;;0.75;61.41;96528.42;1760231;81;28137;-82
2022/01/31 04:05:31;;;;;;;12.00;2.77;;;;;;;0.78;61.33;96525.93;1760143;81;25998;-85
2022/01/31 04:07:58;;;;;;;17.48;2.98;;;;;;;0.77;61.32;96513.14;1760237;81;25665;-83
2022/01/31 04:10:26;;;;;;;16.40;3.27;;;;;;;0.77;61.22;96509.16;1760199;81;25753;-83
2022/01/31 04:12:53;;;;;;;16.45;3.05;;;;;;;0.79;61.22;96517.79;1760243;81;26308;-82
2022/01/31 04:15:19;;;;;;;12.80;2.58;;;;;;;0.80;61.14;96515.97;1760220;81;26995;-84
2022/01/31 04:17:46;;;;;;;13.03;2.77;;;;;;;0.80;61.10;96508.83;1760100;81;25736;-82
2022/01/31 04:20:13;;;;;;;20.43;2.98;;;;;;;0.78;61.00;96494.87;1760253;81;25743;-82
2022/01/31 04:22:47;;;;;;;9.38;2.70;;;;;;;0.77;60.95;96498.53;1760153;81;25701;-82
2022/01/31 04:25:17;;;;;;;8.98;2.35;;;;;;;0.78;60.93;96498.03;1758791;81;25708;-82
2022/01/31 04:27:44;;;;;;;18.42;3.40;;;;;;;0.73;60.60;96494.05;1758646;81;28220;-83
2022/01/31 04:30:07;;;;;;;14.03;2.75;;;;;;;0.72;60.68;96495.05;1758692;81;25808;-83
2022/01/31 04:32:34;;;;;;;15.03;3.42;;;;;;;0.72;60.69;96479.64;1729987;82;25730;-83
2022/01/31 04:35:00;;;;;;;13.20;2.58;;;;;;;0.71;60.69;96486.78;1728124;83;25743;-82
2022/01/31 04:37:27;;;;;;;16.40;3.42;;;;;;;0.69;60.60;96483.47;1760235;81;26333;-83
2022/01/31 04:39:53;;;;;;;20.72;3.17;;;;;;;0.70;60.72;96478.98;1760306;81;28151;-82
2022/01/31 04:42:20;;;;;;;11.22;2.90;;;;;;;0.67;60.61;96472.69;1760098;81;25693;-82
2022/01/31 04:44:48;;;;;;;18.85;3.85;;;;;;;0.66;60.64;96472.35;1760245;81;25827;-82
2022/01/31 04:47:15;;;;;;;13.75;3.25;;;;;;;0.64;60.65;96465.88;1760245;81;26380;-81
2022/01/31 04:49:41;;;;;;;17.92;3.15;;;;;;;0.63;60.74;96468.20;1760219;81;25756;-83
2022/01/31 04:52:08;;;;;;;11.40;2.27;;;;;;;0.62;60.60;96459.08;1759986;81;27357;-83
2022/01/31 04:54:34;;;;;;;16.30;2.58;;;;;;;0.63;60.35;96452.77;1760300;81;25629;-82
2022/01/31 04:57:01;;;;;;;12.98;3.27;;;;;;;0.63;60.58;96459.41;1760297;81;25724;-82
2022/01/31 04:59:28;;;;;;;22.00;3.75;;;;;;;0.59;60.51;96447.00;1760364;81;26401;-86
2022/01/31 05:01:54;;;;;;;15.32;3.37;;;;;;;0.65;60.60;96446.80;1724457;83;25765;-82
2022/01/31 05:04:21;;;;;;;16.25;4.33;;;;;;;0.67;60.59;96435.00;1733482;82;27389;-83
2022/01/31 05:06:49;;;;;;;16.52;4.87;;;;;;;0.68;60.41;96434.50;1733433;82;26579;-82
2022/01/31 05:09:15;;;;;;;12.75;3.42;;;;;;;0.66;60.44;96436.50;1733513;82;25933;-84
2022/01/31 05:11:42;;;;;;;22.75;4.60;;;;;;;0.68;60.30;96439.81;1733462;82;26111;-83
2022/01/31 05:14:09;;;;;;;17.02;3.20;;;;;;;0.62;60.23;96428.53;1752575;81;25755;-82
2022/01/31 05:16:35;;;;;;;15.15;3.50;;;;;;;0.60;60.13;96441.19;1752865;81;27356;-82
2022/01/31 05:19:03;;;;;;;9.90;2.62;;;;;;;0.59;60.11;96435.05;1752708;81;25800;-84
2022/01/31 05:21:30;;;;;;;15.93;2.70;;;;;;;0.57;59.46;96438.88;1752789;81;25772;-82
2022/01/31 05:23:56;;;;;;;11.70;2.55;;;;;;;0.57;59.78;96436.22;1752820;81;25799;-84
2022/01/31 05:26:23;;;;;;;18.48;5.65;;;;;;;0.59;59.88;96435.05;1752797;81;25784;-83
2022/01/31 05:28:50;;;;;;;22.45;4.20;;;;;;;0.61;59.82;96430.86;1752753;81;27511;-84
2022/01/31 05:31:16;;;;;;;18.27;3.45;;;;;;;0.64;59.93;96430.52;1752771;81;25516;-83
2022/01/31 05:33:43;;;;;;;15.55;3.95;;;;;;;0.64;59.94;96427.87;1752759;81;25710;-84
2022/01/31 05:36:10;;;;;;;15.93;3.95;;;;;;;0.64;59.97;96417.25;1752772;81;26187;-84
2022/01/31 05:38:38;;;;;;;19.85;4.60;;;;;;;0.64;60.02;96414.59;1752835;81;25719;-82
2022/01/31 05:41:08;;;;;;;17.85;4.80;;;;;;;0.64;60.11;96413.27;1752851;81;27628;-82
2022/01/31 05:43:34;;;;;;;20.27;5.87;;;;;;;0.64;60.23;96405.30;1752578;81;26278;-85
2022/01/31 05:46:01;;;;;;;16.57;4.83;;;;;;;0.62;60.25;96405.97;1752885;81;25656;-88
2022/01/31 05:48:27;;;;;;;22.17;6.12;;;;;;;0.57;60.28;96399.04;1752856;81;25685;-83
2022/01/31 05:50:54;;;;;;;23.55;5.20;;;;;;;0.54;60.25;96387.42;1752942;81;25316;-84
2022/01/31 05:53:22;;;;;;;20.52;4.80;;;;;;;0.51;60.33;96377.14;1752683;81;28067;-83
2022/01/31 05:55:49;;;;;;;17.62;5.72;;;;;;;0.50;60.42;96375.48;1752705;81;25884;-84
2022/01/31 05:58:16;;;;;;;21.77;5.35;;;;;;;0.50;60.47;96367.52;1752846;81;25276;-84
2022/01/31 06:00:43;;;;;;;19.15;5.03;;;;;;;0.47;60.50;96359.43;1752733;81;25731;-86
2022/01/31 06:03:09;;;;;;;22.52;6.65;;;;;;;0.47;60.51;96354.62;1752897;81;25674;-85
2022/01/31 06:05:36;;;;;;;40.45;13.50;;;;;;;0.48;60.54;96337.69;1752879;81;28137;-84
2022/01/31 06:08:03;;;;;;;25.68;7.25;;;;;;;0.48;60.57;96341.67;1752758;81;25743;-84
2022/01/31 06:10:30;;;;;;;20.68;4.50;;;;;;;0.48;60.53;96338.52;1752796;81;25852;-84
2022/01/31 06:12:56;;;;;;;24.30;4.90;;;;;;;0.49;60.61;96337.98;1752302;81;25676;-83
2022/01/31 06:15:23;;;;;;;27.07;6.60;;;;;;;0.47;60.53;96341.34;1752532;81;25731;-84
2022/01/31 06:17:50;;;;;;;22.07;4.53;;;;;;;0.45;60.56;96341.52;1752892;81;27416;-84
2022/01/31 06:20:16;;;;;;;23.70;4.78;;;;;;;0.45;60.58;96348.65;1752779;81;25772;-83
2022/01/31 06:22:51;;;;;;;22.67;5.10;;;;;;;0.47;60.66;96354.12;1752507;81;25855;-84
2022/01/31 06:25:20;;;;;;;26.35;8.63;;;;;;;0.47;60.69;96352.79;1723906;82;25388;-82
2022/01/31 06:27:47;;;;;;;20.97;6.72;;;;;;;0.49;60.66;96349.94;1703912;84;25758;-83
2022/01/31 06:30:14;;;;;;;32.78;8.83;;;;;;;0.50;60.56;96347.61;1703819;84;28210;-83
2022/01/31 06:32:41;;;;;;;27.00;7.75;;;;;;;0.52;60.68;96345.61;1729951;81;25804;-82
2022/01/31 06:35:08;;;;;;;28.40;8.60;;;;;;;0.50;60.59;96333.00;1730060;81;25694;-82
2022/01/31 06:37:36;;;;;;;25.15;7.15;;;;;;;0.51;60.69;96343.95;1730032;82;25758;-83
2022/01/31 06:40:05;;;;;;;31.40;9.03;;;;;;;0.56;61.08;96334.97;1730092;81;25691;-83
2022/01/31 06:42:33;;;;;;;54.70;18.70;;;;;;;0.62;61.11;96327.13;1729984;81;27380;-84
2022/01/31 06:44:59;;;;;;;37.58;13.03;;;;;;;0.67;60.98;96322.13;1730045;81;25853;-85
2022/01/31 06:47:27;;;;;;;31.10;10.78;;;;;;;0.67;60.80;96310.67;1730055;81;25817;-84
2022/01/31 06:49:53;;;;;;;33.60;7.50;;;;;;;0.68;60.77;96314.98;1730109;81;25764;-84
2022/01/31 06:52:20;;;;;;;39.15;14.43;;;;;;;0.66;60.76;96310.34;1729842;81;25711;-90
2022/01/31 06:54:50;;;;;;;36.42;10.63;;;;;;;0.68;60.75;96298.55;1730040;81;28345;-84
2022/01/31 06:57:15;;;;;;;22.82;6.00;;;;;;;0.71;60.74;96300.03;1729679;81;25292;-84
2022/01/31 06:59:41;;;;;;;24.20;6.05;;;;;;;0.73;60.72;96301.98;1730110;81;25729;-87
2022/01/31 07:02:08;;;;;;;23.87;6.65;;;;;;;0.72;60.74;96303.80;1730085;81;25800;-86
2022/01/31 07:04:35;;;;;;;24.77;7.33;;;;;;;0.73;60.60;96297.99;1729858;82;25776;-84
2022/01/31 07:07:03;;;;;;;24.47;7.17;;;;;;;0.70;60.76;96299.20;1730074;81;28207;-84
2022/01/31 07:09:29;;;;;;;30.43;7.83;;;;;;;0.75;60.85;96297.81;1729969;82;25709;-83
2022/01/31 07:12:00;;;;;;;21.93;5.37;;;;;;;0.76;60.82;96300.30;1730053;81;25665;-84
2022/01/31 07:14:31;;;;;;;23.02;5.97;;;;;;;0.74;60.86;96295.66;1729513;81;26297;-83
2022/01/31 07:17:01;;;;;;;19.62;5.65;;;;;;;0.76;60.83;96301.63;1730040;81;25698;-87
2022/01/31 07:19:31;;;;;;;22.75;5.70;;;;;;;0.78;60.93;96301.45;1729860;81;27216;-90
2022/01/31 07:21:57;;;;;;;17.07;4.83;;;;;;;0.77;61.05;96299.30;1729687;81;25747;-91
2022/01/31 07:24:30;;;;;;;25.10;5.50;;;;;;;0.84;61.16;96292.30;1729810;81;25805;-84
2022/01/31 07:26:53;;;;;;;21.60;5.10;;;;;;;0.89;61.07;96299.21;1729303;81;26241;-89
2022/01/31 07:29:21;;;;;;;19.73;5.67;;;;;;;0.91;61.02;96303.84;1732410;81;25323;-89
2022/01/31 07:31:49;;;;;;;25.85;6.28;;;;;;;0.92;60.81;96292.72;1753943;80;27529;-89
2022/01/31 07:34:17;;;;;;;28.00;8.53;;;;;;;1.01;61.92;96295.13;1759388;80;26260;-89
2022/01/31 07:36:45;;;;;;;32.58;7.08;;;;;;;1.25;62.26;96277.30;1729934;81;26923;-89
2022/01/31 07:39:13;;;;;;;21.05;6.60;;;;;;;1.50;61.54;96281.37;1727060;81;25805;-88
2022/01/31 07:41:40;;;;;;;23.30;7.30;;;;;;;1.53;60.85;96277.03;1726685;83;25758;-90
2022/01/31 07:44:09;;;;;;;25.37;7.22;;;;;;;1.50;60.53;96273.39;1726607;82;27426;-89
2022/01/31 07:46:36;;;;;;;27.17;7.92;;;;;;;1.46;60.41;96277.41;1726685;83;25756;-88
2022/01/31 07:49:04;;;;;;;23.00;6.15;;;;;;;1.44;60.37;96271.48;1726590;83;25729;-86
2022/01/31 07:51:31;;;;;;;26.07;6.80;;;;;;;1.41;60.29;96267.34;1726741;82;26385;-90
2022/01/31 07:53:58;;;;;;;24.98;7.70;;;;;;;1.40;60.22;96263.53;1721120;82;25387;-89
2022/01/31 07:56:24;;;;;;;33.50;8.73;;;;;;;1.41;60.34;96259.37;1720936;83;27428;-83
2022/01/31 07:58:51;;;;;;;25.45;8.35;;;;;;;1.40;60.36;96251.06;1720833;83;25774;-83
2022/01/31 08:01:17;;;;;;;27.20;9.33;;;;;;;1.40;60.33;96253.72;1721280;83;25707;-83
2022/01/31 08:03:45;;;;;;;28.05;9.05;;;;;;;1.41;60.40;96239.92;1721094;83;26248;-83
2022/01/31 08:06:12;;;;;;;26.80;9.28;;;;;;;1.41;60.36;96231.45;1721259;83;25884;-84
2022/01/31 08:08:38;;;;;;;19.35;5.70;;;;;;;1.43;60.37;96232.59;1721165;82;28123;-84
2022/01/31 08:11:05;;;;;;;26.62;8.28;;;;;;;1.39;60.04;96224.16;1721155;82;25825;-84
2022/01/31 08:13:34;;;;;;;26.95;8.10;;;;;;;1.38;60.14;96221.67;1721241;83;25805;-84
2022/01/31 08:18:39;;;;;;;23.98;9.05;;;;;;;1.46;60.25;96212.27;1729655;81;25863;-84
2022/01/31 08:21:08;;;;;;;31.80;9.08;;;;;;;1.51;60.25;96199.75;1751226;81;27351;-85
2022/01/31 08:23:35;;;;;;;37.45;10.18;;;;;;;1.55;60.21;96205.86;1751145;81;25783;-84
2022/01/31 08:26:06;;;;;;;28.20;8.48;;;;;;;1.56;60.20;96200.87;1751225;81;25769;-84
2022/01/31 08:28:39;;;;;;;17.67;6.47;;;;;;;1.57;60.19;96198.50;1750902;81;25744;-85
2022/01/31 08:31:07;;;;;;;28.77;7.20;;;;;;;1.54;60.18;96202.88;1749553;81;25805;-83
2022/01/31 08:33:37;;;;;;;28.77;7.10;;;;;;;1.53;60.10;96201.73;1750656;81;28154;-84
2022/01/31 08:36:03;;;;;;;24.72;6.72;;;;;;;1.50;60.21;96197.59;1750826;81;26335;-83
2022/01/31 08:38:30;;;;;;;20.37;6.28;;;;;;;1.51;60.17;96199.25;1751242;81;25755;-85
2022/01/31 08:40:59;;;;;;;23.92;6.42;;;;;;;1.52;60.16;96194.77;1751320;81;25736;-83
2022/01/31 08:43:26;;;;;;;23.83;6.40;;;;;;;1.54;60.14;96196.73;1751315;81;25303;-83
2022/01/31 08:45:55;;;;;;;19.23;5.70;;;;;;;1.54;60.19;96193.58;1751127;81;28267;-83
2022/01/31 08:48:25;;;;;;;25.45;6.20;;;;;;;1.51;60.11;96196.59;1751173;81;25868;-84
2022/01/31 08:50:53;;;;;;;33.95;11.60;;;;;;;1.51;60.18;96203.24;1751348;81;25835;-83
2022/01/31 08:53:19;;;;;;;63.15;29.30;;;;;;;1.49;60.09;96195.95;1751040;81;25759;-84
2022/01/31 08:55:51;;;;;;;61.65;26.35;;;;;;;1.50;60.05;96194.94;1751134;81;26410;-83
2022/01/31 08:58:18;;;;;;;44.58;16.55;;;;;;;1.50;60.04;96196.27;1750302;81;27597;-86
2022/01/31 09:00:49;;;;;;;56.70;20.52;;;;;;;1.51;60.03;96197.92;1751129;81;25720;-84
2022/01/31 09:05:41;;;;;;;32.17;12.20;;;;;;;1.56;60.06;96190.23;1751257;81;25347;-84
2022/01/31 09:08:08;;;;;;;36.23;13.00;;;;;;;1.54;60.03;96190.91;1751216;81;25771;-84
2022/01/31 09:10:35;;;;;;;34.65;9.60;;;;;;;1.53;60.06;96183.12;1751152;81;28257;-85
2022/01/31 09:13:02;;;;;;;27.48;7.45;;;;;;;1.55;60.15;96177.94;1751133;81;25764;-83
2022/01/31 09:15:28;;;;;;;33.67;10.45;;;;;;;1.59;60.15;96177.05;1751263;81;25780;-84
2022/01/31 09:17:56;;;;;;;22.42;7.28;;;;;;;1.60;60.16;96175.53;1751246;81;25717;-83
2022/01/31 09:20:22;;;;;;;23.62;8.53;;;;;;;1.61;60.15;96171.86;1751247;81;26387;-84
2022/01/31 09:22:49;;;;;;;27.25;7.97;;;;;;;1.57;60.09;96159.94;1754320;80;27479;-85
2022/01/31 09:25:16;;;;;;;27.20;8.23;;;;;;;1.56;60.13;96159.64;1754663;81;26080;-84
2022/01/31 09:27:42;;;;;;;26.07;7.30;;;;;;;1.54;60.14;96165.65;1754764;81;25283;-84
2022/01/31 09:30:12;;;;;;;29.57;7.85;;;;;;;1.55;60.22;96163.31;1754805;81;25772;-84
2022/01/31 09:32:39;;;;;;;26.87;8.78;;;;;;;1.54;60.10;96157.67;1754801;80;25716;-84
2022/01/31 09:35:06;;;;;;;27.27;9.00;;;;;;;1.55;60.16;96154.00;1754693;80;27466;-85
2022/01/31 09:37:32;;;;;;;30.85;9.38;;;;;;;1.56;60.24;96149.00;1754715;81;25736;-84
2022/01/31 09:40:04;;;;;;;35.70;11.40;;;;;;;1.59;60.29;96143.80;1754569;81;26237;-84
2022/01/31 09:42:38;;;;;;;40.75;18.30;;;;;;;1.62;60.23;96135.45;1754406;81;26409;-86
2022/01/31 09:45:15;;;;;;;37.88;13.72;;;;;;;1.67;60.29;96137.06;1753383;80;25769;-85
2022/01/31 09:50:03;;;;;;;35.78;11.68;;;;;;;1.77;60.23;96123.77;1705279;81;25849;-84
2022/01/31 09:52:29;;;;;;;29.23;9.08;;;;;;;1.80;60.27;96117.26;1755002;80;25768;-85
2022/01/31 09:54:56;;;;;;;41.45;12.95;;;;;;;1.85;60.30;96119.34;1763374;79;25734;-85
2022/01/31 09:57:22;;;;;;;39.58;10.23;;;;;;;1.94;60.23;96104.89;1763353;81;25723;-83
2022/01/31 09:59:49;;;;;;;24.32;6.87;;;;;;;1.99;60.20;96094.52;1763233;81;27520;-85
2022/01/31 10:02:16;;;;;;;24.57;7.08;;;;;;;2.04;60.18;96094.27;1763216;80;25820;-86
2022/01/31 10:04:45;;;;;;;27.05;7.42;;;;;;;2.07;60.08;96083.73;1763311;80;25684;-84
2022/01/31 10:07:15;;;;;;;29.07;8.30;;;;;;;2.11;59.99;96082.34;1763220;80;25767;-84
2022/01/31 10:09:47;;;;;;;35.17;10.63;;;;;;;2.16;59.94;96076.78;1763016;80;25469;-84
2022/01/31 10:12:27;;;;;;;25.70;8.65;;;;;;;2.16;59.88;96079.95;1763299;80;27455;-85
2022/01/31 10:17:44;;;;;;;32.05;9.28;;;;;;;2.16;59.72;96063.97;1763071;79;25734;-83
2022/01/31 10:20:33;;;;;;;21.57;7.85;;;;;;;2.16;59.75;96052.00;1762304;79;26272;-84
2022/01/31 10:23:13;;;;;;;29.30;7.25;;;;;;;2.23;59.69;96048.04;1763303;80;25906;-85
2022/01/31 10:25:39;;;;;;;30.10;7.90;;;;;;;2.29;59.66;96034.80;1763533;81;27414;-83
2022/01/31 10:28:16;;;;;;;28.38;8.58;;;;;;;2.35;59.69;96036.67;1763170;81;25732;-85
2022/01/31 10:30:45;;;;;;;32.93;10.98;;;;;;;2.38;59.52;96038.13;1763004;80;25764;-85
2022/01/31 10:33:13;;;;;;;38.58;12.58;;;;;;;2.34;59.40;96035.02;1763258;81;26169;-88
2022/01/31 10:35:41;;;;;;;28.30;9.55;;;;;;;2.36;59.44;96034.33;1763020;81;26190;-84
2022/01/31 10:38:16;;;;;;;40.05;12.03;;;;;;;2.38;59.47;96034.14;1763182;79;27480;-88
2022/01/31 10:44:03;;;;;;;31.42;8.73;;;;;;;2.36;59.40;96025.01;1763068;80;25693;-83
2022/01/31 10:56:59;;;;;;;37.33;8.60;;;;;;;2.31;59.24;96003.95;1729352;82;25820;-84
2022/01/31 10:59:36;;;;;;;26.35;8.98;;;;;;;2.34;59.16;96006.23;1711305;83;25806;-84
2022/01/31 11:02:18;;;;;;;30.08;8.33;;;;;;;2.31;59.09;96002.12;1711278;83;25777;-84
2022/01/31 11:04:46;;;;;;;29.70;10.53;;;;;;;2.28;59.04;96005.70;1711492;83;27528;-86
2022/01/31 11:07:16;;;;;;;31.60;8.95;;;;;;;2.26;59.04;96003.73;1711163;83;25804;-83
2022/01/31 11:09:45;;;;;;;27.93;9.10;;;;;;;2.26;59.09;96003.23;1689320;83;25770;-84
2022/01/31 11:12:13;;;;;;;28.50;7.85;;;;;;;2.33;59.23;96004.59;1689125;83;25840;-84
2022/01/31 11:14:46;;;;;;;28.38;8.20;;;;;;;2.32;59.03;95986.45;1711329;83;25269;-84
2022/01/31 11:17:16;;;;;;;35.55;7.87;;;;;;;2.30;59.01;95985.00;1711245;83;27446;-84
2022/01/31 11:19:48;;;;;;;23.20;8.23;;;;;;;2.30;58.98;95979.17;1711098;83;25774;-84
2022/01/31 11:22:17;;;;;;;30.02;8.85;;;;;;;2.33;59.07;95977.45;1711376;83;26414;-85
2022/01/31 11:24:51;;;;;;;29.35;9.08;;;;;;;2.38;59.10;95968.39;1711242;83;25837;-85
2022/01/31 11:27:24;;;;;;;36.38;9.68;;;;;;;2.40;59.08;95965.53;1711260;83;25746;-87
2022/01/31 11:29:56;;;;;;;28.98;9.18;;;;;;;2.42;59.14;95968.29;1711195;83;27405;-89
2022/01/31 11:32:26;;;;;;;34.85;10.05;;;;;;;2.46;59.14;95973.55;1711190;83;25864;-89
2022/01/31 11:34:54;;;;;;;33.28;8.85;;;;;;;2.42;58.97;95966.95;1711295;83;25710;-88
2022/01/31 11:37:22;;;;;;;25.52;8.98;;;;;;;2.42;59.02;95954.97;1710879;83;26231;-84
2022/01/31 11:40:00;;;;;;;28.52;8.00;;;;;;;2.41;59.00;95944.03;1711242;83;25717;-85
2022/01/31 11:42:28;;;;;;;25.10;7.35;;;;;;;2.38;59.01;95936.43;1711270;83;28259;-85
2022/01/31 11:45:20;;;;;;;28.07;7.45;;;;;;;2.42;58.95;95933.66;1711107;83;25690;-85
2022/01/31 11:47:49;;;;;;;27.82;7.65;;;;;;;2.45;59.12;95929.80;1711274;83;25248;-85
2022/01/31 11:50:17;;;;;;;29.72;7.03;;;;;;;2.52;59.07;95930.67;1711185;83;25827;-85
2022/01/31 11:52:48;;;;;;;26.35;7.35;;;;;;;2.54;59.02;95933.42;1711218;83;25850;-86
2022/01/31 11:55:18;;;;;;;28.70;7.42;;;;;;;2.54;59.06;95941.41;1710426;83;28204;-87
2022/01/31 11:57:48;;;;;;;24.60;6.62;;;;;;;2.48;58.91;95934.73;1710134;83;26429;-84
2022/01/31 12:00:19;;;;;;;33.08;8.08;;;;;;;2.41;58.79;95937.38;1718627;83;25828;-85
2022/01/31 12:02:50;;;;;;;39.92;12.30;;;;;;;2.37;58.67;95942.77;1718643;83;26366;-84